createdAt,value
2017-08-19T00:00:00.485Z,17.50
2017-08-19T00:02:27.918Z,17.40
2017-08-19T00:04:56.113Z,17.30
2017-08-19T00:07:23.545Z,17.30
2017-08-19T00:09:51.744Z,17.30
2017-08-19T00:12:19.201Z,17.30
2017-08-19T00:14:47.381Z,17.40
2017-08-19T00:17:14.824Z,17.40
2017-08-19T00:19:42.257Z,17.40
2017-08-19T00:22:10.456Z,17.50
2017-08-19T00:24:37.893Z,17.50
2017-08-19T00:27:06.092Z,17.40
2017-08-19T00:29:33.530Z,17.40
2017-08-19T00:32:00.961Z,17.40
2017-08-19T00:34:28.404Z,17.30
2017-08-19T00:36:55.835Z,17.30
2017-08-19T00:39:23.279Z,17.30
2017-08-19T00:41:50.707Z,17.20
2017-08-19T00:44:18.137Z,17.20
2017-08-19T00:46:45.566Z,17.30
2017-08-19T00:49:13.005Z,17.20
2017-08-19T00:51:40.432Z,17.20
2017-08-19T00:54:08.633Z,17.10
2017-08-19T00:56:36.073Z,17.10
2017-08-19T00:59:04.283Z,17.10
2017-08-19T01:01:31.710Z,17.10
2017-08-19T01:03:59.132Z,17.00
2017-08-19T01:06:26.577Z,16.90
2017-08-19T01:08:54.017Z,16.90
2017-08-19T01:11:21.472Z,16.90
2017-08-19T01:13:48.889Z,17.00
2017-08-19T01:16:16.329Z,16.90
2017-08-19T01:18:44.530Z,16.70
2017-08-19T01:21:11.960Z,16.70
2017-08-19T01:23:40.146Z,16.60
2017-08-19T01:26:20.197Z,16.60
2017-08-19T01:28:48.393Z,16.60
2017-08-19T01:31:15.834Z,16.60
2017-08-19T01:33:44.020Z,16.50
2017-08-19T01:36:11.449Z,16.50
2017-08-19T01:38:39.660Z,16.30
2017-08-19T01:41:07.096Z,16.30
2017-08-19T01:43:34.531Z,16.30
2017-08-19T01:46:01.961Z,16.20
2017-08-19T01:48:29.398Z,16.20
2017-08-19T01:50:56.821Z,16.20
2017-08-19T01:53:25.047Z,16.20
2017-08-19T01:55:52.486Z,16.20
2017-08-19T01:58:19.924Z,16.20
2017-08-19T02:00:48.117Z,16.10
2017-08-19T02:03:15.574Z,16.10
2017-08-19T02:05:43.086Z,16.10
2017-08-19T02:08:11.276Z,16.10
2017-08-19T02:10:38.711Z,16.10
2017-08-19T02:13:06.132Z,16.10
2017-08-19T02:15:33.570Z,16.10
2017-08-19T02:18:01.728Z,16.10
2017-08-19T02:20:29.310Z,16.10
2017-08-19T02:22:56.708Z,16.10
2017-08-19T02:25:24.141Z,16.10
2017-08-19T02:27:51.584Z,16.10
2017-08-19T02:30:19.023Z,16.10
2017-08-19T02:32:46.454Z,16.10
2017-08-19T02:35:14.643Z,16.10
2017-08-19T02:37:42.071Z,16.10
2017-08-19T02:40:10.272Z,16.10
2017-08-19T02:42:37.704Z,16.10
2017-08-19T02:45:05.892Z,16.00
2017-08-19T02:47:34.097Z,16.00
2017-08-19T02:50:01.512Z,16.00
2017-08-19T02:52:29.774Z,16.00
2017-08-19T02:54:57.197Z,16.00
2017-08-19T02:57:24.646Z,16.00
2017-08-19T02:59:52.061Z,16.00
2017-08-19T03:02:20.256Z,15.90
2017-08-19T03:04:47.689Z,15.90
2017-08-19T03:07:15.884Z,16.00
2017-08-19T03:09:43.316Z,15.90
2017-08-19T03:12:11.509Z,16.00
2017-08-19T03:14:38.939Z,16.00
2017-08-19T03:17:06.377Z,16.00
2017-08-19T03:19:33.806Z,16.00
2017-08-19T03:22:01.237Z,16.00
2017-08-19T03:24:28.668Z,16.00
2017-08-19T03:26:56.092Z,15.90
2017-08-19T03:29:23.540Z,15.90
2017-08-19T03:31:50.960Z,15.90
2017-08-19T03:34:18.389Z,15.80
2017-08-19T03:36:45.824Z,15.70
2017-08-19T03:39:13.264Z,15.70
2017-08-19T03:41:40.756Z,15.70
2017-08-19T03:44:08.184Z,15.70
2017-08-19T03:46:35.611Z,15.70
2017-08-19T03:49:03.040Z,15.80
2017-08-19T03:51:30.482Z,15.80
2017-08-19T03:53:57.900Z,15.80
2017-08-19T03:56:25.336Z,15.80
2017-08-19T03:58:52.755Z,15.80
2017-08-19T04:01:20.209Z,15.80
2017-08-19T04:03:47.638Z,15.80
2017-08-19T04:06:15.085Z,15.80
2017-08-19T04:08:42.516Z,15.90
2017-08-19T04:11:09.940Z,15.80
2017-08-19T04:13:37.364Z,15.90
2017-08-19T04:16:04.789Z,15.70
2017-08-19T04:18:32.216Z,15.70
2017-08-19T04:21:00.407Z,15.60
2017-08-19T04:23:27.840Z,15.60
2017-08-19T04:25:56.040Z,15.70
2017-08-19T04:28:23.476Z,15.70
2017-08-19T04:30:51.660Z,15.60
2017-08-19T04:33:19.920Z,15.60
2017-08-19T04:35:47.348Z,15.60
2017-08-19T04:38:14.776Z,15.40
2017-08-19T04:40:42.210Z,15.50
2017-08-19T04:43:10.400Z,15.50
2017-08-19T04:45:37.837Z,15.40
2017-08-19T04:48:06.097Z,15.40
2017-08-19T04:50:33.533Z,15.40
2017-08-19T04:53:00.968Z,15.40
2017-08-19T04:55:28.388Z,15.40
2017-08-19T04:57:55.808Z,15.30
2017-08-19T05:00:23.285Z,15.30
2017-08-19T05:02:51.477Z,15.10
2017-08-19T05:05:18.925Z,15.10
2017-08-19T05:07:47.195Z,15.10
2017-08-19T05:10:15.381Z,15.00
2017-08-19T05:12:43.583Z,14.90
2017-08-19T05:15:11.011Z,14.90
2017-08-19T05:17:39.218Z,14.90
2017-08-19T05:20:06.640Z,14.90
2017-08-19T05:22:34.850Z,15.00
2017-08-19T05:25:02.449Z,15.00
2017-08-19T05:27:29.880Z,15.00
2017-08-19T05:29:57.300Z,15.10
2017-08-19T05:32:24.724Z,15.00
2017-08-19T05:34:52.157Z,15.10
2017-08-19T05:37:19.589Z,15.10
2017-08-19T05:39:47.020Z,15.20
2017-08-19T05:42:14.438Z,15.20
2017-08-19T05:44:41.913Z,15.10
2017-08-19T05:47:10.108Z,15.10
2017-08-19T05:49:37.540Z,15.10
2017-08-19T05:52:04.964Z,15.20
2017-08-19T05:54:32.401Z,15.30
2017-08-19T05:56:59.829Z,15.30
2017-08-19T05:59:27.249Z,15.30
2017-08-19T06:01:54.720Z,15.30
2017-08-19T06:04:22.155Z,15.40
2017-08-19T06:06:49.664Z,15.50
2017-08-19T06:09:17.084Z,15.40
2017-08-19T06:11:44.507Z,15.50
2017-08-19T06:14:11.935Z,15.60
2017-08-19T06:16:39.368Z,15.60
2017-08-19T06:19:07.573Z,15.70
2017-08-19T06:21:34.992Z,15.70
2017-08-19T06:24:02.451Z,15.80
2017-08-19T06:26:29.885Z,15.80
2017-08-19T06:28:57.324Z,15.90
2017-08-19T06:31:24.752Z,15.90
2017-08-19T06:33:52.183Z,15.90
2017-08-19T06:36:20.377Z,16.10
2017-08-19T06:38:47.817Z,16.10
2017-08-19T06:41:16.003Z,16.30
2017-08-19T06:43:43.456Z,16.30
2017-08-19T06:46:11.640Z,16.60
2017-08-19T06:48:39.068Z,16.50
2017-08-19T06:51:06.491Z,16.70
2017-08-19T06:53:33.916Z,16.70
2017-08-19T06:56:01.381Z,17.00
2017-08-19T06:58:28.801Z,17.20
2017-08-19T07:00:57.005Z,17.80
2017-08-19T07:03:24.437Z,17.80
2017-08-19T07:05:52.635Z,18.20
2017-08-19T07:08:20.064Z,18.20
2017-08-19T07:10:48.262Z,18.50
2017-08-19T07:13:15.686Z,18.40
2017-08-19T07:15:43.144Z,18.40
2017-08-19T07:18:11.336Z,18.70
2017-08-19T07:20:39.546Z,19.00
2017-08-19T07:23:07.047Z,19.00
2017-08-19T07:25:35.745Z,19.30
2017-08-19T07:28:03.166Z,19.50
2017-08-19T07:30:30.598Z,19.70
2017-08-19T07:32:58.016Z,20.10
2017-08-19T07:35:26.224Z,20.50
2017-08-19T07:37:53.650Z,20.50
2017-08-19T07:40:22.836Z,20.80
2017-08-19T07:42:50.302Z,20.80
2017-08-19T07:45:18.509Z,21.00
2017-08-19T07:47:45.945Z,21.00
2017-08-19T07:50:14.132Z,21.30
2017-08-19T07:52:41.605Z,21.20
2017-08-19T07:55:09.028Z,21.40
2017-08-19T07:57:38.217Z,21.60
2017-08-19T08:00:06.409Z,21.50
2017-08-19T08:02:33.884Z,21.40
2017-08-19T08:05:01.322Z,21.40
2017-08-19T08:07:28.764Z,21.30
2017-08-19T08:09:56.952Z,21.40
2017-08-19T08:12:24.397Z,21.40
2017-08-19T08:14:52.602Z,21.90
2017-08-19T08:17:20.044Z,21.90
2017-08-19T08:19:47.468Z,22.10
2017-08-19T08:22:15.191Z,22.10
2017-08-19T08:24:42.656Z,22.10
2017-08-19T08:27:10.088Z,22.30
2017-08-19T08:29:37.521Z,22.60
2017-08-19T08:32:04.945Z,22.90
2017-08-19T08:34:32.375Z,23.00
2017-08-19T08:36:59.804Z,23.10
2017-08-19T08:39:27.228Z,23.20
2017-08-19T08:41:54.648Z,23.40
2017-08-19T08:44:22.087Z,23.80
2017-08-19T08:46:49.512Z,24.00
2017-08-19T08:49:16.951Z,24.00
2017-08-19T08:51:45.547Z,23.90
2017-08-19T08:54:13.751Z,24.10
2017-08-19T08:56:41.180Z,24.10
2017-08-19T08:59:09.389Z,24.40
2017-08-19T09:01:36.825Z,24.40
2017-08-19T09:04:04.255Z,24.10
2017-08-19T09:06:32.079Z,24.50
2017-08-19T09:08:59.500Z,24.30
2017-08-19T09:11:26.942Z,24.70
2017-08-19T09:13:55.336Z,25.00
2017-08-19T09:16:22.776Z,25.30
2017-08-19T09:18:50.239Z,25.10
2017-08-19T09:21:17.649Z,25.10
2017-08-19T09:23:45.080Z,25.30
2017-08-19T09:26:12.629Z,25.10
2017-08-19T09:28:40.075Z,25.20
2017-08-19T09:31:07.519Z,25.40
2017-08-19T09:33:34.935Z,25.10
2017-08-19T09:36:02.369Z,25.40
2017-08-19T09:38:29.800Z,24.70
2017-08-19T09:40:58.029Z,25.10
2017-08-19T09:43:25.480Z,25.00
2017-08-19T09:45:52.921Z,25.60
2017-08-19T09:48:20.357Z,25.70
2017-08-19T09:50:47.791Z,25.80
2017-08-19T09:53:15.340Z,25.40
2017-08-19T09:55:42.851Z,25.30
2017-08-19T09:58:11.201Z,25.40
2017-08-19T10:00:38.697Z,25.40
2017-08-19T10:03:06.371Z,25.50
2017-08-19T10:05:33.800Z,25.20
2017-08-19T10:08:01.943Z,25.70
2017-08-19T10:13:26.646Z,25.60
2017-08-19T10:15:54.179Z,25.30
2017-08-19T10:18:21.680Z,25.70
2017-08-19T10:20:49.184Z,25.90
2017-08-19T10:23:16.624Z,25.80
2017-08-19T10:25:44.048Z,26.10
2017-08-19T10:28:12.286Z,25.90
2017-08-19T10:30:41.720Z,25.90
2017-08-19T10:33:09.177Z,25.30
2017-08-19T10:35:36.609Z,25.60
2017-08-19T10:38:04.043Z,25.20
2017-08-19T10:40:31.547Z,25.10
2017-08-19T10:42:59.824Z,25.00
2017-08-19T10:45:27.261Z,25.00
2017-08-19T10:47:54.690Z,25.20
2017-08-19T10:50:22.116Z,25.10
2017-08-19T10:52:49.560Z,24.90
2017-08-19T10:55:17.757Z,24.20
2017-08-19T10:57:45.284Z,24.20
2017-08-19T11:00:13.488Z,24.70
2017-08-19T11:02:40.925Z,24.60
2017-08-19T11:05:10.212Z,24.50
2017-08-19T11:07:37.676Z,24.50
2017-08-19T11:10:07.895Z,24.60
2017-08-19T11:12:36.105Z,24.80
2017-08-19T11:15:03.532Z,24.80
2017-08-19T11:17:31.732Z,24.50
2017-08-19T11:19:59.166Z,24.50
2017-08-19T11:22:27.363Z,24.10
2017-08-19T11:24:54.783Z,24.00
2017-08-19T11:27:22.212Z,24.00
2017-08-19T11:29:50.733Z,24.00
2017-08-19T11:32:18.928Z,23.80
2017-08-19T11:34:46.348Z,23.70
2017-08-19T11:37:13.828Z,23.40
2017-08-19T11:39:41.248Z,23.30
2017-08-19T11:42:08.684Z,23.40
2017-08-19T11:44:36.116Z,23.60
2017-08-19T11:47:03.547Z,23.70
2017-08-19T11:49:31.748Z,23.50
2017-08-19T11:51:59.168Z,23.50
2017-08-19T11:54:26.607Z,23.70
2017-08-19T11:56:54.100Z,23.80
2017-08-19T11:59:21.531Z,23.80
2017-08-19T12:01:48.984Z,23.60
2017-08-19T12:04:16.456Z,23.40
2017-08-19T12:06:43.878Z,23.30
2017-08-19T12:09:11.324Z,23.20
2017-08-19T12:11:38.745Z,23.10
2017-08-19T12:14:06.180Z,23.10
2017-08-19T12:16:33.644Z,23.10
2017-08-19T12:19:01.845Z,23.10
2017-08-19T12:21:31.332Z,23.10
2017-08-19T12:23:59.548Z,22.70
2017-08-19T12:26:26.974Z,22.70
2017-08-19T12:28:54.398Z,22.60
2017-08-19T12:31:21.872Z,22.70
2017-08-19T12:33:51.088Z,22.60
2017-08-19T12:36:19.296Z,22.60
2017-08-19T12:38:46.725Z,22.60
2017-08-19T12:41:14.157Z,22.60
2017-08-19T12:43:42.368Z,22.70
2017-08-19T12:46:09.788Z,22.70
2017-08-19T12:48:37.988Z,22.70
2017-08-19T12:51:05.420Z,22.70
2017-08-19T12:53:33.607Z,22.50
2017-08-19T12:56:01.035Z,22.50
2017-08-19T12:58:28.469Z,22.30
2017-08-19T13:00:55.911Z,22.30
2017-08-19T13:03:23.334Z,22.20
2017-08-19T13:05:50.774Z,22.10
2017-08-19T13:08:18.197Z,22.30
2017-08-19T13:10:45.620Z,22.40
2017-08-19T13:13:13.071Z,22.30
2017-08-19T13:15:40.493Z,22.30
2017-08-19T13:18:07.964Z,22.30
2017-08-19T13:20:36.163Z,22.20
2017-08-19T13:23:03.708Z,22.20
2017-08-19T13:25:31.147Z,22.10
2017-08-19T13:27:59.337Z,22.10
2017-08-19T13:30:26.760Z,22.10
2017-08-19T13:32:54.196Z,22.10
2017-08-19T13:35:21.625Z,22.10
2017-08-19T13:37:49.112Z,22.20
2017-08-19T13:40:16.536Z,22.10
2017-08-19T13:42:43.961Z,22.20
2017-08-19T13:45:13.166Z,22.10
2017-08-19T13:47:41.368Z,21.90
2017-08-19T13:50:08.797Z,21.90
2017-08-19T13:52:36.984Z,22.00
2017-08-19T13:55:04.417Z,22.00
2017-08-19T13:57:32.607Z,21.80
2017-08-19T14:00:00.812Z,21.90
2017-08-19T14:02:28.263Z,21.90
2017-08-19T14:04:55.691Z,22.00
2017-08-19T14:07:23.131Z,22.00
2017-08-19T14:09:50.581Z,22.00
2017-08-19T14:12:18.012Z,22.00
2017-08-19T14:14:45.441Z,22.10
2017-08-19T14:17:17.577Z,22.10
2017-08-19T14:19:45.763Z,21.90
2017-08-19T14:22:13.198Z,21.90
2017-08-19T14:24:40.621Z,21.80
2017-08-19T14:27:08.076Z,21.70
2017-08-19T14:29:35.506Z,21.60
2017-08-19T14:32:02.940Z,21.70
2017-08-19T14:34:31.129Z,21.90
2017-08-19T14:36:58.557Z,21.80
2017-08-19T14:39:25.983Z,21.90
2017-08-19T14:41:53.419Z,21.90
2017-08-19T14:44:20.835Z,21.90
2017-08-19T14:46:49.034Z,22.00
2017-08-19T14:49:16.457Z,22.00
2017-08-19T14:51:43.896Z,22.00
2017-08-19T14:54:11.320Z,21.90
2017-08-19T14:56:38.740Z,21.90
2017-08-19T14:59:06.940Z,21.70
2017-08-19T15:01:36.304Z,21.70
2017-08-19T15:04:03.735Z,21.70
2017-08-19T15:06:31.164Z,21.70
2017-08-19T15:08:58.592Z,21.60
2017-08-19T15:11:26.784Z,21.60
2017-08-19T15:13:54.207Z,21.60
2017-08-19T15:16:21.643Z,21.50
2017-08-19T15:18:49.080Z,21.40
2017-08-19T15:21:16.499Z,21.50
2017-08-19T15:23:43.936Z,21.40
2017-08-19T15:26:12.129Z,21.40
2017-08-19T15:28:39.557Z,21.40
2017-08-19T15:31:06.984Z,21.40
2017-08-19T15:33:34.409Z,21.40
2017-08-19T15:36:01.842Z,21.40
2017-08-19T15:38:30.023Z,21.30
2017-08-19T15:40:57.456Z,21.30
2017-08-19T15:43:24.879Z,21.30
2017-08-19T15:45:52.312Z,21.40
2017-08-19T15:48:19.733Z,21.30
2017-08-19T15:50:47.168Z,21.30
2017-08-19T15:53:14.600Z,21.20
2017-08-19T15:55:42.032Z,21.30
2017-08-19T15:58:09.460Z,21.30
2017-08-19T16:00:37.676Z,21.30
2017-08-19T16:03:05.097Z,21.30
2017-08-19T16:05:33.279Z,21.40
2017-08-19T16:08:00.707Z,21.40
2017-08-19T16:10:28.137Z,21.40
2017-08-19T16:12:55.560Z,21.40
2017-08-19T16:15:22.989Z,21.40
2017-08-19T16:17:51.185Z,21.40
2017-08-19T16:20:18.613Z,21.40
2017-08-19T16:22:46.076Z,21.30
2017-08-19T16:25:13.488Z,21.40
2017-08-19T16:27:40.916Z,21.40
2017-08-19T16:30:08.345Z,21.30
2017-08-19T16:32:36.557Z,21.30
2017-08-19T16:35:03.981Z,21.30
2017-08-19T16:37:32.185Z,21.20
2017-08-19T16:39:59.600Z,21.10
2017-08-19T16:42:27.041Z,21.20
2017-08-19T16:44:54.482Z,21.20
2017-08-19T16:47:21.893Z,21.10
2017-08-19T16:49:49.328Z,21.10
2017-08-19T16:52:16.744Z,21.00
2017-08-19T16:54:44.191Z,21.00
2017-08-19T16:57:11.597Z,20.90
2017-08-19T16:59:39.064Z,21.00
2017-08-19T17:02:06.494Z,20.90
2017-08-19T17:04:33.921Z,20.90
2017-08-19T17:07:01.342Z,20.80
2017-08-19T17:09:29.552Z,20.80
2017-08-19T17:11:56.967Z,20.80
2017-08-19T17:14:25.168Z,20.80
2017-08-19T17:16:52.592Z,20.80
2017-08-19T17:19:20.795Z,20.70
2017-08-19T17:21:48.215Z,20.70
2017-08-19T17:24:15.644Z,20.70
2017-08-19T17:26:43.072Z,20.60
2017-08-19T17:29:10.504Z,20.70
2017-08-19T17:31:37.933Z,20.70
2017-08-19T17:34:05.373Z,20.60
2017-08-19T17:36:32.796Z,20.60
2017-08-19T17:39:00.239Z,20.50
2017-08-19T17:41:27.668Z,20.40
2017-08-19T17:43:55.089Z,20.30
2017-08-19T17:46:22.529Z,20.30
2017-08-19T17:48:49.957Z,20.30
2017-08-19T17:51:18.155Z,20.20
2017-08-19T17:53:45.580Z,20.20
2017-08-19T17:56:13.773Z,20.10
2017-08-19T17:58:41.197Z,20.10
2017-08-19T18:01:08.628Z,20.10
2017-08-19T18:03:36.061Z,20.00
2017-08-19T18:06:07.359Z,20.00
2017-08-19T18:08:35.555Z,19.80
2017-08-19T18:11:02.987Z,19.80
2017-08-19T18:13:30.414Z,19.70
2017-08-19T18:15:57.856Z,19.60
2017-08-19T18:18:25.318Z,19.60
2017-08-19T18:20:52.765Z,19.50
2017-08-19T18:23:20.184Z,19.50
2017-08-19T18:25:48.376Z,19.50
2017-08-19T18:28:15.796Z,19.50
2017-08-19T18:30:43.232Z,19.50
2017-08-19T18:33:10.664Z,19.50
2017-08-19T18:35:38.108Z,19.30
2017-08-19T18:38:05.527Z,19.00
2017-08-19T18:40:33.734Z,18.80
2017-08-19T18:43:01.934Z,18.70
2017-08-19T18:45:29.448Z,18.70
2017-08-19T18:47:57.648Z,18.60
2017-08-19T18:50:26.092Z,18.60
2017-08-19T18:52:54.292Z,18.60
2017-08-19T18:55:21.724Z,18.60
2017-08-19T18:57:49.152Z,18.70
2017-08-19T19:00:16.572Z,18.60
2017-08-19T19:02:44.008Z,18.60
2017-08-19T19:05:12.200Z,18.60
2017-08-19T19:07:39.639Z,18.60
2017-08-19T19:10:07.828Z,18.70
2017-08-19T19:12:35.265Z,18.70
2017-08-19T19:15:02.708Z,18.70
2017-08-19T19:17:30.131Z,18.70
2017-08-19T19:19:57.558Z,18.70
2017-08-19T19:22:25.005Z,18.80
2017-08-19T19:24:55.208Z,18.60
2017-08-19T19:27:23.409Z,18.60
2017-08-19T19:29:50.841Z,18.50
2017-08-19T19:32:19.042Z,18.40
2017-08-19T19:34:46.472Z,18.40
2017-08-19T19:37:14.689Z,18.40
2017-08-19T19:39:42.124Z,18.30
2017-08-19T19:42:09.556Z,18.30
2017-08-19T19:44:37.770Z,18.10
2017-08-19T19:47:05.180Z,18.10
2017-08-19T19:49:32.611Z,18.00
2017-08-19T19:52:00.036Z,17.80
2017-08-19T19:54:27.472Z,17.70
2017-08-19T19:56:54.954Z,17.60
2017-08-19T19:59:22.398Z,17.50
2017-08-19T20:01:49.824Z,17.40
2017-08-19T20:04:18.029Z,17.30
2017-08-19T20:06:45.493Z,17.30
2017-08-19T20:09:12.943Z,17.20
2017-08-19T20:11:40.461Z,17.10
2017-08-19T20:14:07.898Z,17.10
2017-08-19T20:16:35.320Z,17.10
2017-08-19T20:19:02.760Z,17.00
2017-08-19T20:21:30.953Z,16.90
2017-08-19T20:23:58.488Z,16.90
2017-08-19T20:26:26.676Z,16.80
2017-08-19T20:28:54.108Z,16.80
2017-08-19T20:31:22.309Z,16.80
2017-08-19T20:33:49.740Z,16.80
2017-08-19T20:36:17.968Z,16.80
2017-08-19T20:38:45.397Z,16.80
2017-08-19T20:41:12.821Z,16.80
2017-08-19T20:43:40.259Z,16.80
2017-08-19T20:46:07.686Z,16.80
2017-08-19T20:48:35.188Z,16.80
2017-08-19T20:51:02.676Z,16.80
2017-08-19T20:53:30.101Z,16.80
2017-08-19T20:55:57.528Z,16.80
2017-08-19T20:58:24.952Z,16.80
2017-08-19T21:00:52.382Z,16.80
2017-08-19T21:03:20.568Z,16.80
2017-08-19T21:05:48.005Z,16.80
2017-08-19T21:08:16.192Z,16.80
2017-08-19T21:10:44.483Z,16.70
2017-08-19T21:13:12.734Z,16.70
2017-08-19T21:15:40.156Z,16.70
2017-08-19T21:18:07.576Z,16.70
2017-08-19T21:20:35.007Z,16.70
2017-08-19T21:23:02.464Z,16.70
2017-08-19T21:25:30.668Z,16.60
2017-08-19T21:27:58.096Z,16.60
2017-08-19T21:30:26.297Z,16.60
2017-08-19T21:32:53.720Z,16.50
2017-08-19T21:35:21.919Z,16.50
2017-08-19T21:37:49.352Z,16.40
2017-08-19T21:40:17.556Z,16.40
2017-08-19T21:42:44.980Z,16.40
2017-08-19T21:45:12.411Z,16.30
2017-08-19T21:47:39.832Z,16.30
2017-08-19T21:50:07.264Z,16.20
2017-08-19T21:52:35.460Z,16.10
2017-08-19T21:55:04.940Z,16.10
2017-08-19T21:57:33.136Z,16.00
2017-08-19T22:00:00.559Z,15.90
2017-08-19T22:02:28.752Z,15.90
2017-08-19T22:04:56.192Z,15.90
2017-08-19T22:07:23.619Z,15.90
2017-08-19T22:09:51.046Z,15.90
2017-08-19T22:12:19.484Z,15.80
2017-08-19T22:14:47.684Z,15.70
2017-08-19T22:17:15.104Z,15.70
2017-08-19T22:19:42.547Z,15.70
2017-08-19T22:22:09.980Z,15.70
2017-08-19T22:24:37.409Z,15.70
2017-08-19T22:27:05.617Z,15.70
2017-08-19T22:29:33.044Z,15.60
2017-08-19T22:32:00.476Z,15.60
2017-08-19T22:34:28.673Z,15.50
2017-08-19T22:36:56.101Z,15.50
2017-08-19T22:39:23.539Z,15.30
2017-08-19T22:41:50.965Z,15.40
2017-08-19T22:44:18.379Z,15.40
2017-08-19T22:46:46.572Z,15.20
2017-08-19T22:49:13.991Z,15.20
2017-08-19T22:51:41.426Z,15.20
2017-08-19T22:54:08.854Z,15.20
2017-08-19T22:56:36.284Z,15.20
2017-08-19T22:59:05.470Z,15.20
2017-08-19T23:01:32.901Z,15.20
2017-08-19T23:04:00.330Z,15.20
2017-08-19T23:06:27.768Z,15.20
2017-08-19T23:08:55.192Z,15.20
2017-08-19T23:11:22.630Z,15.10
2017-08-19T23:13:50.059Z,15.10
2017-08-19T23:16:17.497Z,15.10
2017-08-19T23:18:44.922Z,15.10
2017-08-19T23:21:14.127Z,15.10
2017-08-19T23:23:42.324Z,15.10
2017-08-19T23:26:09.757Z,15.10
2017-08-19T23:28:37.187Z,15.10
2017-08-19T23:31:04.625Z,15.00
2017-08-19T23:33:32.048Z,15.00
2017-08-19T23:35:59.475Z,15.00
2017-08-19T23:38:26.909Z,15.00
2017-08-19T23:40:54.344Z,15.00
2017-08-19T23:43:21.775Z,15.00
2017-08-19T23:45:49.208Z,14.90
2017-08-19T23:48:17.408Z,14.80
2017-08-19T23:50:44.853Z,14.80
2017-08-19T23:53:12.284Z,14.90
2017-08-19T23:55:39.712Z,14.80
2017-08-19T23:58:07.153Z,14.80
